Time;durP1;ratioP1;P1;durP2;ratioP2;P2;SDS_P1;SDS_P2;PMS_P1;PMS_P2;Temp;Humidity;BMP_temperature;BMP_pressure;BME280_temperature;BME280_humidity;BME280_pressure;Samples;Min_cycle;Max_cycle;Signal;HPM_P1;HPM_P2
2021/09/03 00:01:05;;;;;;;10.90;7.97;;;;;;;12.05;100.00;96790.97;5048858;28;20055;-78
2021/09/03 00:03:32;;;;;;;10.70;7.17;;;;;;;12.03;100.00;96776.09;5071034;28;20092;-81
2021/09/03 00:05:58;;;;;;;11.60;7.23;;;;;;;12.04;99.91;96779.59;5069526;28;20071;-78
2021/09/03 00:08:24;;;;;;;12.80;7.83;;;;;;;12.00;100.00;96776.44;5052068;28;20038;-79
2021/09/03 00:10:50;;;;;;;9.70;6.73;;;;;;;11.98;100.00;96780.19;5072307;28;20584;-79
2021/09/03 00:13:16;;;;;;;11.80;8.03;;;;;;;11.96;100.00;96777.69;5056750;28;20080;-79
2021/09/03 00:15:42;;;;;;;12.90;7.77;;;;;;;11.96;100.00;96777.69;5070029;28;20677;-79
2021/09/03 00:18:08;;;;;;;11.03;7.77;;;;;;;11.96;100.00;96780.34;5065395;28;20029;-79
2021/09/03 00:20:33;;;;;;;11.53;7.53;;;;;;;11.97;100.00;96779.38;5077007;28;20099;-80
2021/09/03 00:22:59;;;;;;;10.70;6.77;;;;;;;11.97;100.00;96775.88;5053558;28;20037;-79
2021/09/03 00:25:25;;;;;;;10.50;7.30;;;;;;;12.00;100.00;96765.88;5063912;28;20028;-78
2021/09/03 00:27:51;;;;;;;11.37;7.50;;;;;;;11.99;100.00;96773.94;5072828;28;20031;-79
2021/09/03 00:30:17;;;;;;;13.57;8.27;;;;;;;11.93;100.00;96770.09;5076841;28;20076;-79
2021/09/03 00:32:43;;;;;;;11.67;7.50;;;;;;;11.98;100.00;96765.22;5065496;28;20028;-79
2021/09/03 00:35:09;;;;;;;11.20;7.37;;;;;;;11.92;100.00;96765.00;5074230;28;20032;-79
2021/09/03 00:37:35;;;;;;;11.13;8.27;;;;;;;11.82;100.00;96766.88;5078256;28;20056;-79
2021/09/03 00:40:01;;;;;;;13.73;8.17;;;;;;;11.69;100.00;96768.09;5055414;28;20060;-79
2021/09/03 00:42:27;;;;;;;12.27;8.07;;;;;;;11.64;100.00;96765.09;5069913;28;20113;-79
2021/09/03 00:44:53;;;;;;;12.00;7.80;;;;;;;11.65;100.00;96753.56;5065344;28;20020;-79
2021/09/03 00:47:19;;;;;;;12.23;7.57;;;;;;;11.63;100.00;96754.69;5069300;28;20040;-79
2021/09/03 00:49:44;;;;;;;12.13;8.20;;;;;;;11.70;100.00;96758.38;5068081;28;20174;-79
2021/09/03 00:52:11;;;;;;;12.20;7.80;;;;;;;11.73;100.00;96744.91;5071928;28;20033;-80
2021/09/03 00:54:37;;;;;;;10.57;7.37;;;;;;;11.72;100.00;96751.97;5071875;28;20081;-79
2021/09/03 00:57:03;;;;;;;12.83;8.27;;;;;;;11.66;100.00;96746.50;5077138;28;20044;-79
2021/09/03 00:59:29;;;;;;;10.67;7.37;;;;;;;11.66;100.00;96749.13;5068260;28;20028;-79
2021/09/03 01:01:55;;;;;;;11.33;7.93;;;;;;;11.64;100.00;96745.84;5049255;28;20091;-79
2021/09/03 01:04:21;;;;;;;10.80;7.10;;;;;;;11.59;100.00;96737.56;5073551;28;20063;-79
2021/09/03 01:06:47;;;;;;;11.63;7.70;;;;;;;11.59;100.00;96742.81;5049808;28;20116;-79
2021/09/03 01:09:13;;;;;;;11.03;7.77;;;;;;;11.51;100.00;96740.97;5066652;28;20126;-79
2021/09/03 01:11:39;;;;;;;11.30;8.00;;;;;;;11.51;100.00;96740.97;5049637;28;20490;-79
2021/09/03 01:14:05;;;;;;;13.33;7.63;;;;;;;11.52;100.00;96747.88;5054656;28;20040;-79
2021/09/03 01:16:31;;;;;;;13.23;8.30;;;;;;;11.34;100.00;96740.00;5051118;28;20631;-79
2021/09/03 01:18:58;;;;;;;11.70;7.50;;;;;;;11.41;100.00;96741.03;5069754;28;20372;-79
2021/09/03 01:21:23;;;;;;;12.07;8.57;;;;;;;11.42;100.00;96747.94;5055676;28;20028;-79
2021/09/03 01:23:49;;;;;;;12.57;7.93;;;;;;;11.41;100.00;96746.31;5059137;28;20021;-79
2021/09/03 01:26:15;;;;;;;10.67;7.73;;;;;;;11.37;100.00;96747.59;5063917;28;20036;-79
2021/09/03 01:28:41;;;;;;;10.93;7.53;;;;;;;11.32;100.00;96740.13;5068983;28;20086;-79
2021/09/03 01:31:07;;;;;;;12.90;8.83;;;;;;;11.27;100.00;96745.03;5072319;28;20144;-79
2021/09/03 01:33:33;;;;;;;12.77;8.43;;;;;;;11.19;100.00;96741.50;5054812;28;20024;-79
2021/09/03 01:35:59;;;;;;;13.23;9.00;;;;;;;11.16;100.00;96747.06;5051156;28;20044;-78
2021/09/03 01:38:24;;;;;;;13.27;8.47;;;;;;;11.18;100.00;96737.22;5054548;28;20027;-79
2021/09/03 01:40:50;;;;;;;11.70;8.50;;;;;;;11.18;100.00;96742.47;5073539;28;20040;-79
2021/09/03 01:43:16;;;;;;;13.27;8.60;;;;;;;11.17;100.00;96739.03;5050210;28;20055;-79
2021/09/03 01:45:41;;;;;;;11.27;8.00;;;;;;;11.16;100.00;96739.97;5067941;28;20396;-79
2021/09/03 01:48:07;;;;;;;13.60;8.83;;;;;;;11.09;100.00;96742.38;5066938;28;20033;-79
2021/09/03 01:50:33;;;;;;;11.30;7.80;;;;;;;11.11;100.00;96744.88;5061725;28;20029;-79
2021/09/03 01:52:59;;;;;;;10.87;8.10;;;;;;;11.09;100.00;96742.38;5070545;28;20040;-80
2021/09/03 01:55:25;;;;;;;12.50;7.73;;;;;;;11.07;100.00;96741.72;5075127;28;20043;-79
2021/09/03 01:57:50;;;;;;;11.20;7.80;;;;;;;11.05;100.00;96734.94;5053721;28;20036;-80
2021/09/03 02:00:16;;;;;;;12.53;8.50;;;;;;;11.06;100.00;96736.59;5092766;28;20058;-80
2021/09/03 02:02:42;;;;;;;12.63;8.73;;;;;;;11.01;100.00;96737.06;5073527;28;20494;-79
2021/09/03 02:05:08;;;;;;;13.37;8.73;;;;;;;11.13;100.00;96735.00;5060778;28;20032;-80
2021/09/03 02:07:34;;;;;;;11.90;8.33;;;;;;;11.15;100.00;96724.34;5064672;28;20031;-79
2021/09/03 02:10:00;;;;;;;11.43;8.60;;;;;;;11.10;100.00;96730.06;5057229;28;20706;-79
2021/09/03 02:12:26;;;;;;;11.50;7.83;;;;;;;11.13;100.00;96729.75;5078358;28;20103;-79
2021/09/03 02:14:52;;;;;;;12.60;8.80;;;;;;;11.08;100.00;96722.31;5074352;28;20039;-79
2021/09/03 02:17:17;;;;;;;11.67;8.30;;;;;;;11.00;100.00;96727.50;5067741;28;20494;-79
2021/09/03 02:19:43;;;;;;;12.53;8.30;;;;;;;10.94;100.00;96722.84;5066759;28;20051;-79
2021/09/03 02:22:10;;;;;;;13.97;9.00;;;;;;;10.88;100.00;96723.44;5080923;28;20025;-79
2021/09/03 02:24:36;;;;;;;14.33;9.07;;;;;;;10.84;100.00;96716.81;5072215;28;20813;-79
2021/09/03 02:27:02;;;;;;;12.43;7.83;;;;;;;10.81;100.00;96717.13;5068403;28;20051;-79
2021/09/03 02:29:27;;;;;;;11.90;8.33;;;;;;;10.79;100.00;96708.53;5066841;28;20477;-78
2021/09/03 02:31:54;;;;;;;11.17;7.70;;;;;;;10.83;100.00;96713.38;5049517;28;20585;-79
2021/09/03 02:34:22;;;;;;;12.03;7.67;;;;;;;10.85;100.00;96713.19;5054636;28;20039;-79
2021/09/03 02:36:47;;;;;;;11.87;7.77;;;;;;;10.83;100.00;96713.38;5057166;28;20031;-78
2021/09/03 02:39:13;;;;;;;13.67;8.37;;;;;;;10.79;100.00;96708.53;5050136;28;20032;-79
2021/09/03 02:41:39;;;;;;;14.20;8.13;;;;;;;10.76;100.00;96708.81;5067853;28;20021;-79
2021/09/03 02:44:05;;;;;;;12.70;7.77;;;;;;;10.74;100.00;96710.78;5051659;28;20437;-79
2021/09/03 02:46:30;;;;;;;12.37;8.90;;;;;;;10.70;100.00;96712.06;5072165;28;20091;-79
2021/09/03 02:48:56;;;;;;;12.83;7.90;;;;;;;10.75;100.00;96710.63;5058279;28;20036;-78
2021/09/03 02:51:22;;;;;;;13.03;8.37;;;;;;;10.77;100.00;96713.13;5044191;28;20027;-79
2021/09/03 02:53:47;;;;;;;10.67;7.37;;;;;;;10.76;100.00;96711.47;5074465;28;20100;-79
2021/09/03 02:56:13;;;;;;;11.67;8.03;;;;;;;10.79;100.00;96708.53;5053613;28;20035;-79
2021/09/03 02:58:39;;;;;;;13.00;8.27;;;;;;;10.75;100.00;96704.56;5072382;28;20533;-79
2021/09/03 03:01:05;;;;;;;12.97;7.17;;;;;;;10.76;100.00;96704.38;5055103;28;20107;-79
2021/09/03 03:03:32;;;;;;;10.33;7.60;;;;;;;10.75;100.00;96701.91;5068370;28;20068;-79
2021/09/03 03:05:58;;;;;;;11.30;7.50;;;;;;;10.80;100.00;96704.94;5065428;28;20017;-78
2021/09/03 03:08:24;;;;;;;13.10;7.37;;;;;;;10.78;100.00;96701.63;5069722;28;20119;-79
2021/09/03 03:10:50;;;;;;;11.27;7.60;;;;;;;10.72;100.00;96699.59;5068869;28;20033;-79
2021/09/03 03:13:20;;;;;;;12.83;8.50;;;;;;;10.69;100.00;96697.25;5071208;28;20024;-79
2021/09/03 03:15:48;;;;;;;12.67;7.30;;;;;;;10.74;100.00;96695.00;5067056;28;20039;-79
2021/09/03 03:18:13;;;;;;;18.50;12.00;;;;;;;10.71;100.00;96692.69;5048107;28;20040;-79
2021/09/03 03:20:39;;;;;;;171.37;104.83;;;;;;;10.75;100.00;96694.84;5058089;28;20118;-79
2021/09/03 03:23:05;;;;;;;18.20;13.33;;;;;;;10.67;100.00;96691.31;5052812;28;20119;-79
2021/09/03 03:25:31;;;;;;;12.27;7.73;;;;;;;10.76;100.00;96687.78;5080570;28;20050;-79
2021/09/03 03:27:56;;;;;;;11.20;6.97;;;;;;;10.70;100.00;96681.34;5067554;28;20074;-79
2021/09/03 03:30:22;;;;;;;9.53;7.23;;;;;;;10.71;100.00;96684.78;5058594;28;20453;-80
2021/09/03 03:32:48;;;;;;;12.17;7.30;;;;;;;10.70;100.00;96683.13;5072486;28;20024;-79
2021/09/03 03:35:13;;;;;;;10.70;7.10;;;;;;;10.76;100.00;96687.78;5059743;28;20044;-79
2021/09/03 03:37:40;;;;;;;12.03;7.97;;;;;;;10.78;100.00;96677.94;5071256;28;20444;-78
2021/09/03 03:40:06;;;;;;;12.67;7.33;;;;;;;10.81;100.00;96680.28;5061083;28;20681;-79
2021/09/03 03:42:31;;;;;;;10.67;7.23;;;;;;;10.77;100.00;96681.56;5074819;28;20084;-79
2021/09/03 03:44:57;;;;;;;10.00;7.00;;;;;;;10.80;100.00;96689.97;5068695;28;20127;-78
2021/09/03 03:47:23;;;;;;;13.13;7.23;;;;;;;10.84;100.00;96685.25;5069934;28;20417;-79
2021/09/03 03:49:48;;;;;;;10.57;6.87;;;;;;;10.96;100.00;96688.47;5076413;28;20115;-79
2021/09/03 03:52:14;;;;;;;9.93;6.80;;;;;;;10.85;100.00;96681.63;5065911;28;20025;-79
2021/09/03 03:54:40;;;;;;;10.80;7.47;;;;;;;10.81;100.00;96690.81;5073480;28;20028;-79
2021/09/03 03:57:05;;;;;;;15.30;7.23;;;;;;;10.83;100.00;96680.94;5059357;28;20061;-79
2021/09/03 03:59:31;;;;;;;9.50;7.17;;;;;;;10.82;100.00;96676.66;5056011;28;20513;-79
2021/09/03 04:01:57;;;;;;;11.07;7.30;;;;;;;10.81;100.00;96675.84;5072514;28;20035;-79
2021/09/03 04:04:22;;;;;;;9.80;6.97;;;;;;;10.77;100.00;96668.41;5072701;28;20088;-79
2021/09/03 04:06:48;;;;;;;12.90;7.73;;;;;;;10.87;100.00;96671.78;5070823;28;20077;-78
2021/09/03 04:09:14;;;;;;;11.40;6.47;;;;;;;10.85;100.00;96669.28;5071509;28;20158;-79
2021/09/03 04:11:41;;;;;;;11.30;7.40;;;;;;;10.75;100.00;96675.63;5052226;28;20023;-79
2021/09/03 04:14:08;;;;;;;13.27;9.30;;;;;;;10.68;100.00;96669.31;5072115;28;20044;-79
2021/09/03 04:16:33;;;;;;;12.97;7.53;;;;;;;10.65;100.00;96669.59;5052185;28;20093;-79
2021/09/03 04:18:59;;;;;;;11.83;7.90;;;;;;;10.71;100.00;96674.25;5075624;28;20028;-79
2021/09/03 04:21:25;;;;;;;10.43;7.07;;;;;;;10.70;100.00;96677.88;5073052;28;20201;-79
2021/09/03 04:23:51;;;;;;;10.87;7.60;;;;;;;10.64;100.00;96681.09;5075105;28;20033;-79
2021/09/03 04:26:16;;;;;;;12.27;7.57;;;;;;;10.59;100.00;96676.25;5075431;28;20140;-79
2021/09/03 04:28:43;;;;;;;12.30;7.33;;;;;;;10.50;100.00;96677.19;5056812;28;20087;-79
2021/09/03 04:31:10;;;;;;;11.40;7.80;;;;;;;10.47;100.00;96677.47;5059538;28;20504;-79
2021/09/03 04:33:35;;;;;;;12.23;7.83;;;;;;;10.50;100.00;96675.38;5072157;28;20008;-79
2021/09/03 04:36:01;;;;;;;12.80;6.83;;;;;;;10.49;100.00;96675.50;5086538;28;20083;-79
2021/09/03 04:38:28;;;;;;;10.73;7.17;;;;;;;10.42;100.00;96675.25;5064395;28;20696;-79
2021/09/03 04:40:54;;;;;;;10.87;6.63;;;;;;;10.43;100.00;96676.94;5068998;28;20075;-79
2021/09/03 04:43:20;;;;;;;11.73;7.87;;;;;;;10.46;100.00;96671.38;5061842;28;20511;-79
2021/09/03 04:45:46;;;;;;;13.40;9.57;;;;;;;10.52;100.00;96681.28;5081099;28;20043;-79
2021/09/03 04:48:13;;;;;;;12.17;9.00;;;;;;;10.56;100.00;96677.41;5076012;28;20051;-79
2021/09/03 04:50:39;;;;;;;14.67;8.70;;;;;;;10.57;100.00;96678.22;5075712;28;20099;-79
2021/09/03 04:53:05;;;;;;;12.17;8.60;;;;;;;10.56;100.00;96690.56;5067543;28;20059;-78
2021/09/03 04:55:31;;;;;;;14.07;7.83;;;;;;;10.62;100.00;96689.94;5076608;28;20035;-79
2021/09/03 04:57:57;;;;;;;12.07;8.33;;;;;;;10.58;100.00;96695.66;5074042;28;20034;-79
2021/09/03 05:00:22;;;;;;;14.67;10.30;;;;;;;10.61;100.00;96696.19;5072461;28;20037;-79
2021/09/03 05:02:48;;;;;;;12.77;8.33;;;;;;;10.67;100.00;96689.53;5051863;28;20139;-79
2021/09/03 05:05:15;;;;;;;12.60;7.20;;;;;;;10.69;100.00;96690.19;5067739;28;20033;-79
2021/09/03 05:07:41;;;;;;;11.07;7.60;;;;;;;10.74;100.00;96692.38;5068783;28;20040;-79
2021/09/03 05:10:08;;;;;;;11.37;7.90;;;;;;;10.74;100.00;96690.56;5068961;28;20126;-79
2021/09/03 05:12:35;;;;;;;12.73;8.30;;;;;;;10.80;100.00;96681.28;5054070;28;20594;-79
2021/09/03 05:15:05;;;;;;;12.80;8.07;;;;;;;10.87;100.00;96690.22;5069218;28;20024;-79
2021/09/03 05:17:31;;;;;;;13.60;8.10;;;;;;;10.81;100.00;96690.81;5068491;28;20618;-79
2021/09/03 05:19:57;;;;;;;10.37;7.90;;;;;;;10.99;100.00;96678.47;5065670;28;20123;-79
2021/09/03 05:22:22;;;;;;;12.53;7.73;;;;;;;11.20;100.00;96685.22;5070852;28;20671;-79
2021/09/03 05:24:48;;;;;;;12.60;7.07;;;;;;;11.39;100.00;96684.22;5070564;28;20032;-79
2021/09/03 05:27:14;;;;;;;11.93;7.30;;;;;;;11.50;100.00;96671.66;5072761;28;20051;-79
2021/09/03 05:29:39;;;;;;;10.63;7.50;;;;;;;11.65;100.00;96677.19;5066065;28;20095;-79
2021/09/03 05:32:06;;;;;;;13.17;8.20;;;;;;;11.83;99.68;96677.09;5053977;28;20098;-79
2021/09/03 05:34:31;;;;;;;11.17;7.80;;;;;;;12.26;97.54;96678.84;5050155;28;20033;-79
2021/09/03 05:36:57;;;;;;;14.77;6.93;;;;;;;12.65;94.87;96680.13;5048216;28;20046;-79
2021/09/03 05:39:23;;;;;;;12.07;6.53;;;;;;;12.89;94.11;96668.78;5064847;28;20137;-79
2021/09/03 05:41:49;;;;;;;12.20;7.37;;;;;;;13.26;90.95;96671.00;5052237;28;20089;-79
2021/09/03 05:44:14;;;;;;;10.20;7.13;;;;;;;13.04;92.02;96674.25;5051636;28;20028;-82
2021/09/03 05:46:40;;;;;;;10.77;6.80;;;;;;;13.28;90.23;96682.22;5050500;28;21096;-79
2021/09/03 05:49:06;;;;;;;9.60;6.43;;;;;;;13.91;88.21;96678.00;5069317;28;20117;-80
2021/09/03 05:51:31;;;;;;;9.90;6.30;;;;;;;14.10;85.00;96668.88;5075030;28;20654;-79
2021/09/03 05:53:57;;;;;;;13.23;7.83;;;;;;;14.03;87.69;96675.84;5060457;28;20529;-79
2021/09/03 05:56:23;;;;;;;15.23;6.50;;;;;;;14.57;85.13;96670.69;5072672;28;20024;-79
2021/09/03 05:58:49;;;;;;;10.27;6.60;;;;;;;14.83;82.29;96671.22;5054918;28;20043;-79
2021/09/03 06:01:14;;;;;;;9.70;7.17;;;;;;;14.41;84.81;96670.72;5070846;28;20200;-79
2021/09/03 06:03:40;;;;;;;13.97;8.43;;;;;;;14.74;82.32;96668.78;5063769;28;20088;-79
2021/09/03 06:06:06;;;;;;;10.17;6.60;;;;;;;14.94;82.16;96661.22;5055746;28;20047;-78
2021/09/03 06:08:31;;;;;;;12.90;8.50;;;;;;;15.33;80.43;96661.91;5073448;28;20027;-79
2021/09/03 06:10:57;;;;;;;11.80;6.60;;;;;;;15.31;81.25;96661.25;5065037;28;20048;-79
2021/09/03 06:13:23;;;;;;;10.60;6.23;;;;;;;15.78;76.75;96660.19;5066953;28;20488;-79
2021/09/03 06:15:49;;;;;;;11.43;6.20;;;;;;;16.03;77.23;96655.47;5049818;28;20142;-79
2021/09/03 06:18:15;;;;;;;9.77;5.40;;;;;;;16.08;75.22;96659.38;5067814;28;20029;-79
2021/09/03 06:20:40;;;;;;;10.80;7.30;;;;;;;15.73;77.42;96656.44;5078042;28;20116;-79
2021/09/03 06:23:06;;;;;;;11.53;7.07;;;;;;;16.61;73.92;96662.72;5061403;28;20024;-79
2021/09/03 06:25:32;;;;;;;8.67;6.33;;;;;;;16.29;76.25;96659.47;5075399;28;20031;-78
2021/09/03 06:27:57;;;;;;;11.55;7.38;;;;;;;15.96;77.45;96662.50;5070979;28;20074;-79
2021/09/03 06:30:23;;;;;;;9.82;6.28;;;;;;;15.70;77.34;96662.13;5073659;28;20028;-79
2021/09/03 06:32:49;;;;;;;9.45;5.93;;;;;;;15.89;78.41;96660.75;5063806;28;20082;-78
2021/09/03 06:35:15;;;;;;;9.88;5.82;;;;;;;15.74;78.05;96664.22;5067779;28;20707;-79
2021/09/03 06:37:42;;;;;;;9.13;5.57;;;;;;;15.63;78.82;96666.47;5070767;28;20096;-79
2021/09/03 06:40:08;;;;;;;8.07;5.47;;;;;;;16.23;75.19;96662.84;5078945;28;20884;-79
2021/09/03 06:42:34;;;;;;;8.60;5.82;;;;;;;16.88;74.45;96661.22;5051342;28;20020;-79
2021/09/03 06:45:00;;;;;;;9.50;5.93;;;;;;;16.48;74.99;96664.19;5068449;28;20045;-79
2021/09/03 06:47:26;;;;;;;10.82;5.28;;;;;;;16.77;73.88;96664.34;5067827;28;20891;-79
2021/09/03 06:49:52;;;;;;;9.60;5.05;;;;;;;17.59;72.31;96662.06;5063937;28;20025;-79
2021/09/03 06:52:18;;;;;;;7.80;5.18;;;;;;;17.65;71.22;96661.31;5069924;28;20397;-79
2021/09/03 06:54:43;;;;;;;8.35;5.57;;;;;;;17.65;69.43;96660.47;5081129;28;20032;-79
2021/09/03 06:57:09;;;;;;;9.45;5.25;;;;;;;18.42;68.29;96653.41;5077267;28;20028;-79
2021/09/03 06:59:35;;;;;;;9.02;5.00;;;;;;;18.32;67.05;96654.59;5080889;28;20029;-79
2021/09/03 07:02:01;;;;;;;8.02;5.00;;;;;;;18.53;65.97;96650.97;5071139;28;21032;-79
2021/09/03 07:04:27;;;;;;;8.45;5.00;;;;;;;18.75;65.77;96650.91;5074879;28;20059;-79
2021/09/03 07:06:53;;;;;;;9.75;5.07;;;;;;;19.19;63.50;96645.03;5093083;28;20013;-80
2021/09/03 07:09:19;;;;;;;11.25;5.63;;;;;;;18.38;67.32;96645.00;5092073;28;20043;-79
2021/09/03 07:11:45;;;;;;;7.35;4.97;;;;;;;19.14;65.35;96644.81;5079922;28;20051;-79
2021/09/03 07:14:11;;;;;;;9.45;5.22;;;;;;;18.90;66.34;96654.22;5077628;28;20074;-80
2021/09/03 07:16:37;;;;;;;9.20;5.65;;;;;;;18.11;68.04;96655.50;5076938;28;20048;-79
2021/09/03 07:19:03;;;;;;;7.90;5.32;;;;;;;18.73;67.37;96658.25;5071787;28;20036;-79
2021/09/03 07:21:33;;;;;;;8.63;5.03;;;;;;;17.88;69.20;96663.75;5083500;28;20489;-79
2021/09/03 07:23:59;;;;;;;9.50;5.13;;;;;;;18.84;66.83;96657.66;5088082;28;20036;-78
2021/09/03 07:26:26;;;;;;;8.55;5.68;;;;;;;18.06;68.31;96665.91;5077671;28;20028;-79
2021/09/03 07:28:51;;;;;;;9.30;5.25;;;;;;;18.48;68.84;96658.75;5067189;28;20039;-79
2021/09/03 07:31:17;;;;;;;7.30;4.80;;;;;;;19.50;64.40;96657.78;5075144;28;20017;-78
2021/09/03 07:33:43;;;;;;;13.10;5.95;;;;;;;19.80;63.12;96652.06;5064245;28;20066;-79
2021/09/03 07:36:09;;;;;;;8.60;4.53;;;;;;;19.63;63.73;96661.47;5069187;28;20059;-79
2021/09/03 07:38:35;;;;;;;7.20;5.05;;;;;;;20.51;59.96;96650.47;5075072;28;20146;-79
2021/09/03 07:41:00;;;;;;;8.38;5.25;;;;;;;19.94;61.80;96653.66;5072183;28;20020;-79
2021/09/03 07:43:26;;;;;;;7.20;4.65;;;;;;;20.18;59.73;96646.03;5054020;28;20037;-79
2021/09/03 07:45:52;;;;;;;7.50;4.78;;;;;;;19.28;63.16;96653.66;5071246;28;20020;-77
2021/09/03 07:48:17;;;;;;;10.93;5.70;;;;;;;19.95;61.85;96650.00;5051606;28;20093;-79
2021/09/03 07:50:43;;;;;;;7.75;5.03;;;;;;;19.72;62.17;96654.94;5069428;28;20119;-79
2021/09/03 07:53:11;;;;;;;8.02;4.82;;;;;;;20.64;59.83;96645.06;5078942;28;20040;-79
2021/09/03 07:55:37;;;;;;;7.80;4.78;;;;;;;21.50;56.92;96641.09;5063664;28;20021;-77
2021/09/03 07:58:04;;;;;;;11.02;4.90;;;;;;;21.40;55.19;96647.75;5071533;28;20020;-77
2021/09/03 08:00:30;;;;;;;8.40;4.50;;;;;;;22.44;54.22;96648.00;5050364;28;20079;-77
2021/09/03 08:02:56;;;;;;;8.27;4.78;;;;;;;23.03;52.48;96645.63;5059015;28;20536;-77
2021/09/03 08:05:22;;;;;;;9.70;5.45;;;;;;;22.23;54.22;96651.97;5070701;28;20024;-78
2021/09/03 08:07:48;;;;;;;8.02;5.35;;;;;;;21.81;55.15;96643.69;5071557;28;20035;-78
2021/09/03 08:10:15;;;;;;;7.40;4.63;;;;;;;22.28;54.00;96641.38;5065532;28;20478;-78
2021/09/03 08:12:41;;;;;;;10.00;5.07;;;;;;;22.57;51.84;96637.13;5067853;28;20028;-78
2021/09/03 08:15:08;;;;;;;8.70;4.35;;;;;;;22.87;51.65;96627.47;5053606;28;20116;-77
2021/09/03 08:17:35;;;;;;;7.55;4.50;;;;;;;22.82;52.61;96634.31;5067188;28;20517;-78
2021/09/03 08:20:02;;;;;;;8.82;4.78;;;;;;;22.30;52.55;96642.00;5061153;28;20055;-79
2021/09/03 08:22:27;;;;;;;8.73;4.60;;;;;;;22.96;51.55;96635.00;5066791;28;20020;-79
2021/09/03 08:24:54;;;;;;;7.68;5.20;;;;;;;22.64;52.66;96638.91;5050204;28;20028;-79
2021/09/03 08:27:20;;;;;;;8.55;4.47;;;;;;;23.06;51.56;96639.81;5073258;28;20660;-78
2021/09/03 08:29:46;;;;;;;9.40;4.70;;;;;;;22.99;50.90;96639.09;5075613;28;20103;-79
2021/09/03 08:32:12;;;;;;;8.35;4.95;;;;;;;23.01;51.87;96639.69;5070361;28;20023;-78
2021/09/03 08:34:38;;;;;;;18.13;5.28;;;;;;;24.15;48.75;96632.28;5064191;28;20024;-78
2021/09/03 08:37:04;;;;;;;9.13;4.70;;;;;;;25.06;46.81;96635.19;5069585;28;20067;-79
2021/09/03 08:39:30;;;;;;;6.15;3.92;;;;;;;24.75;46.42;96628.44;5073574;28;20035;-79
2021/09/03 08:41:57;;;;;;;8.30;4.47;;;;;;;24.05;49.42;96631.25;5069023;28;20055;-79
2021/09/03 08:44:22;;;;;;;7.88;4.70;;;;;;;24.68;45.37;96631.25;5063253;28;20501;-79
2021/09/03 08:46:48;;;;;;;6.45;4.45;;;;;;;23.98;46.73;96636.72;5063970;28;20021;-78
2021/09/03 08:49:14;;;;;;;7.68;4.88;;;;;;;23.00;50.76;96633.50;5070538;28;20115;-78
2021/09/03 08:51:40;;;;;;;7.22;4.32;;;;;;;24.00;47.03;96631.91;5048866;28;20035;-79
2021/09/03 08:54:06;;;;;;;6.88;4.43;;;;;;;23.75;45.47;96632.16;5069022;28;20016;-78
2021/09/03 08:56:33;;;;;;;6.55;3.95;;;;;;;22.79;47.53;96640.13;5073005;28;20032;-79
2021/09/03 08:58:58;;;;;;;5.70;3.80;;;;;;;22.99;46.85;96633.72;5063789;28;20028;-78
2021/09/03 09:01:24;;;;;;;7.20;4.05;;;;;;;23.51;44.87;96628.63;5074323;28;20111;-79
2021/09/03 09:03:52;;;;;;;7.43;4.13;;;;;;;23.22;45.19;96631.13;5062592;28;20371;-78
2021/09/03 09:06:18;;;;;;;7.65;4.07;;;;;;;23.21;45.64;96629.50;5074636;28;20036;-78
2021/09/03 09:08:44;;;;;;;6.22;3.75;;;;;;;22.35;46.79;96636.75;5054517;28;20735;-78
2021/09/03 09:11:13;;;;;;;6.85;4.25;;;;;;;23.83;44.00;96628.31;5071647;28;20029;-77
2021/09/03 09:13:41;;;;;;;6.68;4.00;;;;;;;24.17;43.64;96632.03;5047617;28;20121;-78
2021/09/03 09:16:09;;;;;;;6.68;4.40;;;;;;;22.20;47.81;96647.06;5068010;28;20816;-77
2021/09/03 09:18:41;;;;;;;5.80;3.83;;;;;;;23.62;46.07;96635.84;5069921;28;20120;-78
2021/09/03 09:21:11;;;;;;;6.93;4.07;;;;;;;25.10;41.40;96636.34;5067424;28;20040;-78
2021/09/03 09:23:45;;;;;;;7.10;3.97;;;;;;;23.17;45.42;96648.94;5068093;28;20459;-78
2021/09/03 09:26:11;;;;;;;7.80;4.50;;;;;;;25.73;41.91;96633.66;5063993;28;20485;-78
2021/09/03 09:28:38;;;;;;;7.38;4.43;;;;;;;25.98;41.64;96627.84;5046279;28;20032;-77
2021/09/03 09:31:04;;;;;;;8.00;4.90;;;;;;;25.26;43.49;96640.16;5073365;28;20493;-78
2021/09/03 09:33:30;;;;;;;5.70;3.80;;;;;;;24.92;44.12;96625.78;5064434;28;20045;-79
2021/09/03 09:35:58;;;;;;;7.43;4.18;;;;;;;26.75;40.72;96616.19;5067366;28;20039;-78
2021/09/03 09:38:33;;;;;;;6.18;3.83;;;;;;;26.93;40.23;96613.19;5084046;28;20019;-79
2021/09/03 09:41:06;;;;;;;6.88;4.28;;;;;;;27.07;39.90;96604.66;5086843;28;20462;-79
2021/09/03 09:43:44;;;;;;;6.97;3.88;;;;;;;25.61;41.52;96612.19;5050425;28;20032;-80
2021/09/03 09:46:13;;;;;;;6.90;4.07;;;;;;;26.12;41.84;96610.25;5059158;28;20655;-78
2021/09/03 09:48:51;;;;;;;5.63;3.67;;;;;;;27.53;38.57;96600.50;5051257;28;20077;-79
2021/09/03 09:51:31;;;;;;;6.32;3.72;;;;;;;27.23;39.35;96609.16;5047082;28;20029;-78
2021/09/03 09:54:01;;;;;;;7.90;4.07;;;;;;;26.84;38.88;96606.59;5072172;28;20554;-79
2021/09/03 09:56:30;;;;;;;7.82;3.55;;;;;;;28.00;37.25;96598.97;5070640;28;20474;-79
2021/09/03 09:58:57;;;;;;;6.28;3.83;;;;;;;27.87;37.35;96594.84;5070982;28;20580;-80
2021/09/03 10:01:23;;;;;;;7.68;4.18;;;;;;;26.34;39.88;96604.91;5068492;28;20032;-79
2021/09/03 10:03:51;;;;;;;6.47;3.83;;;;;;;26.26;40.93;96600.75;5072959;28;20111;-79
2021/09/03 10:06:18;;;;;;;7.00;4.07;;;;;;;27.96;37.57;96588.66;5069775;28;20041;-79
2021/09/03 10:08:45;;;;;;;7.28;4.43;;;;;;;27.00;40.06;96596.78;5067546;28;20482;-78
2021/09/03 10:11:18;;;;;;;7.88;4.30;;;;;;;24.84;43.70;96601.94;5050790;28;20481;-77
2021/09/03 10:13:44;;;;;;;7.68;4.90;;;;;;;26.54;40.95;96594.38;5073209;28;20028;-78
2021/09/03 10:16:11;;;;;;;8.60;4.57;;;;;;;27.08;38.92;96596.31;5065106;28;20436;-78
2021/09/03 10:18:40;;;;;;;6.82;3.90;;;;;;;25.86;41.71;96599.13;5068988;28;20073;-78
2021/09/03 10:21:07;;;;;;;5.47;3.50;;;;;;;24.35;44.27;96598.81;5068543;28;20035;-78
2021/09/03 10:23:52;;;;;;;6.90;3.95;;;;;;;24.73;43.13;96594.75;5071557;28;20034;-78
2021/09/03 10:26:30;;;;;;;5.93;3.95;;;;;;;25.46;41.65;96595.78;5049871;28;20512;-78
2021/09/03 10:29:17;;;;;;;7.25;3.88;;;;;;;26.39;40.69;96586.09;5065982;28;20035;-79
2021/09/03 10:32:14;;;;;;;7.85;3.35;;;;;;;26.78;38.48;96581.44;5042709;28;20040;-79
2021/09/03 10:34:40;;;;;;;9.88;4.35;;;;;;;27.00;38.91;96585.97;5067569;28;20034;-80
2021/09/03 10:37:19;;;;;;;6.65;4.45;;;;;;;28.05;36.64;96574.66;5073336;28;20449;-79
2021/09/03 10:39:59;;;;;;;7.80;3.95;;;;;;;24.66;42.43;96597.59;5077089;28;20028;-79
2021/09/03 10:42:56;;;;;;;8.38;3.90;;;;;;;24.45;43.57;96578.38;5063822;28;20105;-79
2021/09/03 10:45:23;;;;;;;6.13;4.10;;;;;;;24.95;41.37;96584.94;5059883;28;20037;-79
2021/09/03 10:48:07;;;;;;;7.07;3.80;;;;;;;25.35;40.58;96584.88;5056319;28;20028;-79
2021/09/03 10:50:47;;;;;;;9.10;3.67;;;;;;;25.56;41.14;96579.78;5066246;28;20054;-79
2021/09/03 10:53:18;;;;;;;7.93;3.97;;;;;;;25.24;42.72;96579.53;5050358;28;20185;-79
2021/09/03 10:55:53;;;;;;;6.47;4.25;;;;;;;23.78;43.55;96578.00;5063750;28;20085;-79
2021/09/03 10:58:39;;;;;;;5.53;3.08;;;;;;;25.88;41.21;96563.84;5079143;28;20039;-78
2021/09/03 11:01:14;;;;;;;6.65;3.97;;;;;;;25.70;40.95;96567.63;5061001;28;20048;-78
2021/09/03 11:03:47;;;;;;;6.97;3.72;;;;;;;24.91;41.73;96573.81;5055600;28;20028;-78
2021/09/03 11:06:28;;;;;;;5.95;3.80;;;;;;;25.22;40.99;96568.19;5072074;28;20066;-79
2021/09/03 11:08:57;;;;;;;6.07;3.90;;;;;;;24.83;40.35;96573.41;5069899;28;20516;-77
2021/09/03 11:11:28;;;;;;;6.32;3.38;;;;;;;25.96;39.93;96570.72;5051167;28;20044;-78
2021/09/03 11:13:58;;;;;;;6.37;3.83;;;;;;;26.35;37.92;96560.69;5069877;28;20463;-78
2021/09/03 11:16:34;;;;;;;5.45;3.63;;;;;;;25.39;39.00;96566.34;5046363;28;20060;-80
2021/09/03 11:19:11;;;;;;;5.90;3.60;;;;;;;25.85;39.57;96562.50;5062906;28;20111;-79
2021/09/03 11:21:41;;;;;;;7.07;3.95;;;;;;;26.09;39.11;96556.88;5063239;28;20086;-78
2021/09/03 11:24:08;;;;;;;7.57;4.10;;;;;;;24.68;42.21;96566.72;5070658;28;20405;-78